San Francisco, CA

6:25 AM PDT on October 25, 2014 (GMT -0700)
SOMA | Change Station
CLOSE
Current Station
Personal Weather Station
Location: San Francisco, CA
Elevation: 23 ft
Nearby Weather Stations

Elev 23 ft 37.78 °N, 122.41 °W | Updated 1 minute ago

Rain
Rain
59.6 °F
Feels Like 59.6 °F
N
3.0
Wind Variable Wind from SSW
Gusts 6.0 mph

Today
High -- | Low -- °F
--% Chance of Precip.
Yesterday
High -- | Low -- °F
Precip. -- in
7:27 AM 6:18 PM
Waxing Crescent, 3% visible
Pressure 29.94 in
Visibility 4.0 miles
Clouds Scattered Clouds 600 ft
Mostly Cloudy 1500 ft
Overcast 2400 ft
Dew Point 56 °F
Humidity 89%
Rainfall 0.00 in
Snow Depth Not available.
UV 0.0 out of 12
Pollen .10 out of 12
PM2.5 Good
Flu Activity Sporadic
METAR KOAK 251253Z 18011KT 4SM RA BR SCT006 BKN015 OVC024 16/14 A2995 RMK AO2 SLP139 P0012 T01610144

More Conditions Fewer Conditions

Pressure 29.94 in
Visibility 4.0 miles
Clouds Scattered Clouds 600 ft
Mostly Cloudy 1500 ft
Overcast 2400 ft
Dew Point 56 °F
Humidity 89%
Rainfall 0.00 in
Snow Depth Not available.
UV 0.0 out of 12
Pollen .10 out of 12
PM2.5 Good
Flu Activity Sporadic
METAR KOAK 251253Z 18011KT 4SM RA BR SCT006 BKN015 OVC024 16/14 A2995 RMK AO2 SLP139 P0012 T01610144

More Conditions Fewer Conditions

10-Day Weather Forecast

Almanac

Astronomy

Oct. 25, 2014 Rise Set
Actual Time 7:27 AM PDT 6:18 PM PDT
Civil Twilight 7:00 AM PDT 6:45 PM PDT
Nautical Twilight 6:30 AM PDT 7:16 PM PDT
Astronomical Twilight 5:59 AM PDT 7:46 PM PDT
Moon 9:10 AM PDT 7:47 PM PDT
Length of Visible Light 11h 44m
Length of Day
10h 51m
Tomorrow will be 2m 13s shorter.
Waxing Crescent, 3% of the Moon is Illuminated
Today
Waxing Crescent
Oct 30
First Quarter
Nov 6
Full
Nov 14
Last Quarter
Nov 22
New

Today's Extremes

State Highs State Lows

Community

WunderPhotos

Upload Photos

1,764,829 photos uploaded!

Nearby

Air Quality

  Air Quality AQ Index Pollutant
Yesterday Good
PM2.5
Yesterday Good
OZONE
Current Good
PM2.5
Saturday Good
OZONE
Sunday Good
OZONE
Monday Moderate
PM2.5
Tuesday Moderate
PM2.5
Wednesday Moderate
PM2.5

Snow Depth

Station Depth Elevation
Blue Lakes 0 in 8000 ft
Echo Peak 1 in 7800 ft
Forestdale Creek 0 in 8029 ft
Rubicon #2 1 in 7500 ft
Ward Creek #3 1 in 6750 ft

Earthquake Activity

City Distance Mag. Time & Date
Coalinga, California 161 miles 2.5 11:01 PM PDT
2014-10-24
Minimum magnitude displayed is 2.5.

Coastal Water Temperatures

Place Temperature
No Stations Reporting

Nearby Weather Stations